Time;durP1;ratioP1;P1;durP2;ratioP2;P2;SDS_P1;SDS_P2;PMS_P1;PMS_P2;Temp;Humidity;BMP_temperature;BMP_pressure;BME280_temperature;BME280_humidity;BME280_pressure;Samples;Min_cycle;Max_cycle;Signal;HPM_P1;HPM_P2
2023/01/18 00:00:33;;;;;;;12.02;6.63;;;-1.30;99.90;;;;;;4984246;28;20106;-82
2023/01/18 00:02:59;;;;;;;12.15;6.50;;;-1.30;99.90;;;;;;4986820;28;20061;-82
2023/01/18 00:05:25;;;;;;;12.30;7.50;;;-1.40;99.90;;;;;;4983703;28;20482;-82
2023/01/18 00:07:54;;;;;;;11.43;6.97;;;-1.40;99.90;;;;;;4967946;28;20043;-82
2023/01/18 00:10:21;;;;;;;14.40;7.68;;;-1.50;99.90;;;;;;4983379;28;20039;-82
2023/01/18 00:12:47;;;;;;;13.13;8.48;;;-1.50;99.90;;;;;;4975724;28;20071;-82
2023/01/18 00:15:13;;;;;;;13.02;7.85;;;-1.50;99.90;;;;;;4968114;28;20038;-82
2023/01/18 00:17:50;;;;;;;11.32;6.97;;;-1.40;99.90;;;;;;4965336;28;20203;-82
2023/01/18 00:20:17;;;;;;;14.20;6.65;;;-1.50;99.90;;;;;;4984067;28;20494;-82
2023/01/18 00:22:43;;;;;;;11.65;6.93;;;-1.40;99.90;;;;;;5014385;28;20038;-81
2023/01/18 00:25:10;;;;;;;11.68;7.25;;;-1.40;99.90;;;;;;4989776;28;20087;-82
2023/01/18 00:27:43;;;;;;;12.77;7.03;;;-1.40;99.90;;;;;;4989119;28;20046;-82
2023/01/18 00:30:09;;;;;;;13.30;7.85;;;-1.30;99.90;;;;;;4967164;28;20047;-81
2023/01/18 00:32:35;;;;;;;10.20;6.80;;;-1.40;99.90;;;;;;4969040;28;20041;-81
2023/01/18 00:35:06;;;;;;;13.35;7.50;;;-1.30;99.90;;;;;;4980911;28;20040;-81
2023/01/18 00:37:32;;;;;;;12.60;6.72;;;-1.30;99.90;;;;;;4970476;28;20519;-81
2023/01/18 00:39:58;;;;;;;11.77;7.45;;;-1.20;99.90;;;;;;4970826;28;20116;-81
2023/01/18 00:45:08;;;;;;;11.82;7.20;;;-1.10;99.90;;;;;;4987604;28;20042;-81
2023/01/18 00:47:33;;;;;;;12.80;7.38;;;-1.10;99.90;;;;;;4986668;28;20405;-81
2023/01/18 00:49:59;;;;;;;12.15;7.20;;;-1.10;99.90;;;;;;4983225;28;20039;-81
2023/01/18 00:52:25;;;;;;;11.23;7.30;;;-1.10;99.90;;;;;;4968849;28;20037;-82
2023/01/18 00:54:51;;;;;;;11.55;6.65;;;-1.10;99.90;;;;;;4993388;28;20492;-81
2023/01/18 00:57:16;;;;;;;10.48;6.38;;;-1.10;99.90;;;;;;4971514;28;20379;-81
2023/01/18 00:59:42;;;;;;;12.43;7.25;;;-1.10;99.90;;;;;;4969663;28;20034;-81
2023/01/18 01:02:08;;;;;;;11.82;6.72;;;-1.10;99.90;;;;;;5015127;28;20100;-82
2023/01/18 01:07:18;;;;;;;16.02;7.45;;;-1.10;99.90;;;;;;4991432;28;20073;-81
2023/01/18 01:09:44;;;;;;;12.57;7.43;;;-1.10;99.90;;;;;;4979506;28;20112;-81
2023/01/18 01:26:05;;;;;;;12.52;7.10;;;-1.20;99.90;;;;;;4983858;28;20046;-81
2023/01/18 01:28:30;;;;;;;12.05;6.63;;;-1.20;99.90;;;;;;4997956;28;20046;-81
2023/01/18 01:31:00;;;;;;;11.75;7.10;;;-1.20;99.90;;;;;;4969324;28;20147;-81
2023/01/18 01:33:27;;;;;;;16.00;7.93;;;-1.30;99.90;;;;;;4965102;28;20038;-81
2023/01/18 01:36:00;;;;;;;13.70;8.25;;;-1.20;99.90;;;;;;4984939;28;20089;-81
2023/01/18 01:38:27;;;;;;;10.88;7.43;;;-1.30;99.90;;;;;;4967592;28;20125;-82
2023/01/18 01:40:58;;;;;;;12.65;8.45;;;-1.20;99.90;;;;;;4984832;28;20418;-81
2023/01/18 01:43:42;;;;;;;12.82;7.18;;;-1.30;99.90;;;;;;4984669;28;20055;-81
2023/01/18 01:46:14;;;;;;;12.35;7.78;;;-1.30;99.90;;;;;;4968353;28;20091;-81
2023/01/18 01:48:40;;;;;;;11.68;7.82;;;-1.30;99.90;;;;;;4969706;28;20479;-81
2023/01/18 01:51:06;;;;;;;11.45;7.75;;;-1.30;99.90;;;;;;4966318;28;20125;-81
2023/01/18 01:53:31;;;;;;;12.52;7.80;;;-1.30;99.90;;;;;;5018118;27;20046;-81
2023/01/18 01:55:57;;;;;;;12.23;7.47;;;-1.30;99.90;;;;;;4975994;28;20060;-81
2023/01/18 01:58:28;;;;;;;13.55;8.23;;;-1.40;99.90;;;;;;4967558;28;20052;-81
2023/01/18 02:00:54;;;;;;;12.73;7.90;;;-1.40;99.90;;;;;;4967245;28;20111;-81
2023/01/18 02:03:21;;;;;;;11.02;7.30;;;-1.40;99.90;;;;;;5028189;28;20046;-81
2023/01/18 02:05:58;;;;;;;12.90;7.32;;;-1.40;99.90;;;;;;4983948;28;20398;-81
2023/01/18 02:08:24;;;;;;;12.68;7.03;;;-1.40;99.90;;;;;;5017940;27;20405;-81
2023/01/18 02:10:51;;;;;;;10.57;7.10;;;-1.40;99.90;;;;;;5019148;28;20050;-81
2023/01/18 02:13:19;;;;;;;15.32;7.30;;;-1.40;99.90;;;;;;5016802;27;20027;-81
2023/01/18 02:16:02;;;;;;;10.85;7.15;;;-1.40;99.90;;;;;;4970580;28;20038;-81
2023/01/18 02:18:43;;;;;;;14.65;7.53;;;-1.40;99.90;;;;;;4984217;28;20055;-81
2023/01/18 02:21:19;;;;;;;14.02;8.95;;;-1.40;99.90;;;;;;4983644;28;20046;-81
2023/01/18 02:24:15;;;;;;;14.55;8.35;;;-1.40;99.90;;;;;;4969336;28;20049;-81
2023/01/18 02:26:52;;;;;;;15.10;8.25;;;-1.40;99.90;;;;;;4969903;28;20042;-81
2023/01/18 02:30:07;;;;;;;13.98;8.13;;;-1.40;99.90;;;;;;4981329;28;20050;-81
2023/01/18 02:32:45;;;;;;;;;;;-1.40;99.90;;;;;;4986314;28;20436;-81
2023/01/18 02:35:19;;;;;;;13.23;8.25;;;-1.50;99.90;;;;;;5000588;28;19932;-81
2023/01/18 02:37:54;;;;;;;;;;;-1.50;99.90;;;;;;4988607;28;20076;-81
2023/01/18 02:40:59;;;;;;;13.75;8.57;;;-1.50;99.90;;;;;;4969795;28;20413;-81
2023/01/18 02:46:29;;;;;;;16.42;8.93;;;-1.50;99.90;;;;;;5035496;28;20050;-81
2023/01/18 02:48:57;;;;;;;13.85;9.55;;;-1.50;99.90;;;;;;4966912;28;20050;-81
2023/01/18 02:51:39;;;;;;;16.27;9.00;;;-1.50;99.90;;;;;;5078534;27;21259;-80
2023/01/18 02:54:08;;;;;;;14.65;9.30;;;-1.50;99.90;;;;;;5078820;28;20071;-80
2023/01/18 02:56:41;;;;;;;12.82;8.70;;;-1.50;99.90;;;;;;5041077;28;20047;-80
2023/01/18 02:59:18;;;;;;;14.07;8.75;;;-1.50;99.90;;;;;;5062600;28;20432;-80
2023/01/18 03:01:58;;;;;;;15.45;8.57;;;-1.50;99.90;;;;;;5045332;28;20483;-80
2023/01/18 03:04:30;;;;;;;14.20;8.23;;;-1.50;99.90;;;;;;5044691;28;20977;-80
2023/01/18 03:07:16;;;;;;;10.75;7.57;;;-1.50;99.90;;;;;;5059763;28;20429;-80
2023/01/18 03:09:43;;;;;;;13.98;8.63;;;-1.60;99.90;;;;;;5061338;28;20094;-80
2023/01/18 03:12:16;;;;;;;13.82;8.82;;;-1.60;99.90;;;;;;5061755;28;20106;-80
2023/01/18 03:15:11;;;;;;;13.80;8.93;;;-1.60;99.90;;;;;;5044894;28;20083;-80
2023/01/18 03:17:47;;;;;;;17.50;8.80;;;-1.60;99.90;;;;;;5060327;28;20052;-80
2023/01/18 03:20:18;;;;;;;13.80;9.38;;;-1.50;99.90;;;;;;5043457;28;20562;-80
2023/01/18 03:25:49;;;;;;;16.13;9.50;;;-1.60;99.90;;;;;;5078292;28;20068;-80
2023/01/18 03:34:44;;;;;;;15.05;9.02;;;-1.70;99.90;;;;;;5059641;28;20052;-81
2023/01/18 03:37:18;;;;;;;14.13;8.98;;;-1.70;99.90;;;;;;5044611;28;20482;-81
2023/01/18 03:39:56;;;;;;;14.52;9.35;;;-1.70;99.90;;;;;;5043854;28;20051;-81
2023/01/18 03:42:38;;;;;;;13.02;9.43;;;-1.70;99.90;;;;;;5058866;28;20162;-80
2023/01/18 03:45:12;;;;;;;14.90;10.18;;;-1.70;99.90;;;;;;5042975;28;20119;-80
2023/01/18 03:47:38;;;;;;;17.27;9.95;;;-1.70;99.90;;;;;;5043819;28;20095;-80
2023/01/18 03:50:04;;;;;;;16.42;10.02;;;-1.70;99.90;;;;;;5043439;28;20060;-80
2023/01/18 03:52:45;;;;;;;16.05;10.25;;;-1.70;99.90;;;;;;5043494;28;20048;-80
2023/01/18 03:55:22;;;;;;;18.88;10.95;;;-1.70;99.90;;;;;;5060292;28;20037;-80
2023/01/18 03:57:56;;;;;;;16.50;10.88;;;-1.70;99.90;;;;;;5059692;28;20041;-80
2023/01/18 04:00:21;;;;;;;;;;;-1.70;99.90;;;;;;5043182;28;20404;-80
2023/01/18 04:02:48;;;;;;;16.30;10.60;;;-1.70;99.90;;;;;;5029797;28;19928;-80
2023/01/18 04:05:15;;;;;;;19.10;11.00;;;-1.70;99.90;;;;;;5030197;28;20047;-80
2023/01/18 04:07:41;;;;;;;17.92;10.63;;;-1.80;99.90;;;;;;5044246;28;20456;-80
2023/01/18 04:10:07;;;;;;;16.80;10.30;;;-1.80;99.90;;;;;;5030127;28;20032;-80
2023/01/18 04:12:33;;;;;;;17.63;10.93;;;-1.80;99.90;;;;;;5030267;28;20076;-81
2023/01/18 04:15:00;;;;;;;17.45;10.27;;;-1.80;99.90;;;;;;5047516;28;20068;-80
2023/01/18 04:17:26;;;;;;;15.43;10.77;;;-1.80;99.90;;;;;;5029404;28;20072;-80
2023/01/18 04:19:51;;;;;;;17.48;11.43;;;-1.80;99.90;;;;;;5045189;28;20118;-80
2023/01/18 04:22:17;;;;;;;18.25;10.88;;;-1.80;99.90;;;;;;5030316;28;20417;-80
2023/01/18 04:24:43;;;;;;;17.60;11.10;;;-1.80;99.90;;;;;;5046216;28;20040;-80
2023/01/18 04:27:09;;;;;;;28.15;12.68;;;-1.80;99.90;;;;;;5044759;28;20094;-80
2023/01/18 04:29:35;;;;;;;21.33;11.73;;;-1.90;99.90;;;;;;5027457;28;20049;-80
2023/01/18 04:32:00;;;;;;;18.08;11.25;;;-1.80;99.90;;;;;;5030519;28;20037;-80
2023/01/18 04:34:26;;;;;;;17.02;10.73;;;-1.90;99.90;;;;;;5045829;28;20156;-80
2023/01/18 04:36:52;;;;;;;17.67;12.00;;;-1.90;99.90;;;;;;5031216;28;20029;-80
2023/01/18 04:39:18;;;;;;;19.08;11.32;;;-1.90;99.90;;;;;;5029585;28;20048;-80
2023/01/18 04:41:44;;;;;;;19.42;11.85;;;-1.90;99.90;;;;;;5028483;28;20093;-80
2023/01/18 04:44:10;;;;;;;17.10;11.68;;;-1.90;99.90;;;;;;5027426;28;20037;-80
2023/01/18 04:46:37;;;;;;;18.85;10.75;;;-1.90;99.90;;;;;;5030052;28;20040;-80
2023/01/18 04:49:04;;;;;;;18.23;12.38;;;-2.00;99.90;;;;;;5029676;28;20037;-80
2023/01/18 04:51:31;;;;;;;16.48;10.85;;;-1.90;99.90;;;;;;5046886;28;20068;-80
2023/01/18 04:53:58;;;;;;;19.15;11.48;;;-2.00;99.90;;;;;;5030111;28;20037;-80
2023/01/18 04:56:24;;;;;;;18.45;11.70;;;-2.00;99.90;;;;;;5028275;28;20163;-80
2023/01/18 04:58:54;;;;;;;17.90;12.32;;;-2.00;99.90;;;;;;5044126;28;20564;-80
2023/01/18 05:01:20;;;;;;;19.00;12.32;;;-2.00;99.90;;;;;;5044117;28;20043;-80
2023/01/18 05:03:46;;;;;;;21.35;11.88;;;-2.00;99.90;;;;;;5028662;28;20048;-80
2023/01/18 05:06:15;;;;;;;17.90;11.38;;;-2.00;99.90;;;;;;5029228;28;20033;-80
2023/01/18 05:08:41;;;;;;;19.63;12.63;;;-2.00;99.90;;;;;;5045389;28;20049;-80
2023/01/18 05:11:09;;;;;;;18.90;11.57;;;-2.00;99.90;;;;;;5044640;28;20098;-81
2023/01/18 05:13:35;;;;;;;17.80;11.73;;;-2.00;99.90;;;;;;5045077;28;20464;-80
2023/01/18 05:16:02;;;;;;;25.73;13.77;;;-1.90;99.90;;;;;;5027357;28;20041;-81
2023/01/18 05:18:28;;;;;;;17.83;10.82;;;-1.80;99.90;;;;;;5027051;28;20041;-81
2023/01/18 05:20:53;;;;;;;18.45;11.93;;;-1.80;99.90;;;;;;5046432;28;20044;-81
2023/01/18 05:23:19;;;;;;;18.52;12.02;;;-1.70;99.90;;;;;;5030068;28;20386;-81
2023/01/18 05:25:50;;;;;;;17.83;12.10;;;-1.80;99.90;;;;;;5026715;28;20040;-81
2023/01/18 05:28:16;;;;;;;21.02;12.32;;;-1.70;99.90;;;;;;5045381;28;20045;-81
2023/01/18 05:30:42;;;;;;;22.38;12.40;;;-1.70;99.90;;;;;;5044625;28;20045;-81
2023/01/18 05:33:08;;;;;;;20.08;12.93;;;-1.70;99.90;;;;;;5027478;28;20036;-81
2023/01/18 05:35:34;;;;;;;18.45;12.25;;;-1.70;99.90;;;;;;5029587;28;20112;-81
2023/01/18 05:38:00;;;;;;;22.27;11.95;;;-1.70;99.90;;;;;;5028366;28;20384;-81
2023/01/18 05:40:26;;;;;;;18.00;12.32;;;-1.70;99.90;;;;;;5027521;28;20040;-81
2023/01/18 05:42:52;;;;;;;23.63;12.90;;;-1.70;99.90;;;;;;5028803;28;20049;-80
2023/01/18 05:45:19;;;;;;;19.77;12.60;;;-1.60;99.90;;;;;;5027983;28;20706;-80
2023/01/18 05:47:44;;;;;;;26.25;13.93;;;-1.70;99.90;;;;;;5027477;28;20080;-81
2023/01/18 05:50:10;;;;;;;19.33;13.25;;;-1.70;99.90;;;;;;5028499;28;20080;-81
2023/01/18 05:52:36;;;;;;;20.13;14.10;;;-1.70;99.90;;;;;;5028994;28;20032;-81
2023/01/18 05:55:03;;;;;;;19.60;12.68;;;-1.60;99.90;;;;;;5043669;28;20066;-81
2023/01/18 05:57:29;;;;;;;20.38;13.48;;;-1.60;99.90;;;;;;5043564;28;20043;-81
2023/01/18 05:59:54;;;;;;;20.63;13.48;;;-1.60;99.90;;;;;;5026864;28;20047;-81
2023/01/18 06:02:20;;;;;;;23.15;13.85;;;-1.60;99.90;;;;;;5027774;28;20073;-81
2023/01/18 06:04:46;;;;;;;19.35;12.68;;;-1.50;99.90;;;;;;5027526;28;20062;-81
2023/01/18 06:07:13;;;;;;;18.45;12.80;;;-1.50;99.90;;;;;;5045715;28;20079;-81
2023/01/18 06:09:39;;;;;;;19.02;12.88;;;-1.50;99.90;;;;;;5028351;28;20564;-81
2023/01/18 06:12:05;;;;;;;22.15;13.90;;;-1.50;99.90;;;;;;5043471;28;20115;-81
2023/01/18 06:14:31;;;;;;;20.05;12.93;;;-1.50;99.90;;;;;;5027796;28;20033;-81
2023/01/18 06:16:57;;;;;;;20.60;13.88;;;-1.50;99.90;;;;;;5026378;28;20087;-81
2023/01/18 06:19:23;;;;;;;19.83;12.32;;;-1.50;99.90;;;;;;5041718;28;20037;-81
2023/01/18 06:21:48;;;;;;;23.45;13.15;;;-1.50;99.90;;;;;;5027605;28;20512;-81
2023/01/18 06:24:14;;;;;;;22.38;12.55;;;-1.50;99.90;;;;;;5042166;28;20041;-81
2023/01/18 06:26:39;;;;;;;20.20;11.90;;;-1.50;99.90;;;;;;5026834;28;20123;-81
2023/01/18 06:29:05;;;;;;;18.45;11.52;;;-1.50;99.90;;;;;;5029618;28;20033;-81
2023/01/18 06:31:31;;;;;;;19.35;12.45;;;-1.50;99.90;;;;;;5027939;28;20036;-81
2023/01/18 06:33:56;;;;;;;18.15;12.50;;;-1.50;99.90;;;;;;5025330;28;20036;-81
2023/01/18 06:36:22;;;;;;;19.33;11.02;;;-1.60;99.90;;;;;;5028133;28;20068;-81
2023/01/18 06:38:48;;;;;;;20.38;12.38;;;-1.60;99.90;;;;;;5044024;28;20032;-81
2023/01/18 06:41:14;;;;;;;21.63;12.18;;;-1.60;99.90;;;;;;5028166;28;20094;-81
2023/01/18 06:43:40;;;;;;;17.17;11.45;;;-1.70;99.90;;;;;;5028734;28;20435;-81
2023/01/18 06:46:07;;;;;;;21.30;11.85;;;-1.60;99.90;;;;;;5027259;28;20072;-81
2023/01/18 06:48:32;;;;;;;18.95;12.75;;;-1.60;99.90;;;;;;5038193;28;20037;-81
2023/01/18 06:50:58;;;;;;;20.83;12.38;;;-1.50;99.90;;;;;;5024200;28;20465;-81
2023/01/18 06:53:24;;;;;;;21.13;12.50;;;-1.50;99.90;;;;;;5027189;28;20045;-81
2023/01/18 06:55:58;;;;;;;18.13;10.73;;;-1.50;99.90;;;;;;5028347;28;20029;-81
2023/01/18 06:58:25;;;;;;;17.80;11.52;;;-1.50;99.90;;;;;;5026430;28;20040;-81
2023/01/18 07:00:59;;;;;;;19.38;12.10;;;-1.50;99.90;;;;;;5024889;28;20045;-81
2023/01/18 07:03:26;;;;;;;18.83;12.57;;;-1.50;99.90;;;;;;5060829;28;20521;-81
2023/01/18 07:06:00;;;;;;;19.48;10.63;;;-1.40;99.90;;;;;;5055939;28;20397;-81
2023/01/18 07:08:27;;;;;;;19.00;11.23;;;-1.40;99.90;;;;;;5060976;28;20425;-81
2023/01/18 07:10:53;;;;;;;21.52;12.20;;;-1.40;99.90;;;;;;5041582;28;20076;-81
2023/01/18 07:13:20;;;;;;;18.05;12.18;;;-1.40;99.90;;;;;;5052101;28;20382;-81
2023/01/18 07:15:58;;;;;;;19.30;12.18;;;-1.40;99.90;;;;;;5027852;28;20044;-82
2023/01/18 07:18:24;;;;;;;20.63;12.93;;;-1.40;99.90;;;;;;5060748;28;20516;-81
2023/01/18 07:21:01;;;;;;;24.45;11.93;;;-1.30;99.90;;;;;;5026156;28;20432;-82
2023/01/18 07:23:28;;;;;;;22.45;11.98;;;-1.30;99.90;;;;;;5027092;28;20041;-82
2023/01/18 07:26:15;;;;;;;20.48;11.40;;;-1.30;99.90;;;;;;5042614;28;20044;-82
2023/01/18 07:28:41;;;;;;;18.63;11.85;;;-1.30;99.90;;;;;;5045311;28;20045;-81
2023/01/18 07:31:07;;;;;;;19.20;11.77;;;-1.30;99.90;;;;;;5041722;28;20173;-82
2023/01/18 07:33:34;;;;;;;21.65;12.80;;;-1.30;99.90;;;;;;5025530;28;20037;-82
2023/01/18 07:36:00;;;;;;;22.73;13.02;;;-1.30;99.90;;;;;;5025053;28;20063;-82
2023/01/18 07:38:26;;;;;;;18.52;12.43;;;-1.30;99.90;;;;;;5047226;28;20052;-81
2023/01/18 07:41:22;;;;;;;21.45;11.45;;;-1.20;99.90;;;;;;5030374;28;20400;-82
2023/01/18 07:43:47;;;;;;;18.92;12.00;;;-1.30;99.90;;;;;;5022747;28;20064;-81
2023/01/18 07:46:20;;;;;;;18.88;11.55;;;-1.30;99.90;;;;;;5032105;28;20067;-81
2023/01/18 07:48:47;;;;;;;18.52;12.23;;;-1.20;99.90;;;;;;5031400;28;20037;-82
2023/01/18 07:51:14;;;;;;;19.85;11.65;;;-1.20;99.90;;;;;;5030027;28;20052;-82
2023/01/18 07:53:40;;;;;;;20.13;12.07;;;-1.20;99.90;;;;;;5046649;28;20044;-82
2023/01/18 07:56:12;;;;;;;18.95;11.50;;;-1.20;99.90;;;;;;5031813;28;20041;-82
2023/01/18 07:58:38;;;;;;;19.00;11.40;;;-1.20;99.90;;;;;;5031591;28;20059;-82
2023/01/18 08:01:06;;;;;;;17.85;11.52;;;-1.20;99.90;;;;;;5046209;28;20408;-82
2023/01/18 08:03:32;;;;;;;16.67;11.55;;;-1.20;99.90;;;;;;5031491;28;20083;-82
2023/01/18 08:05:59;;;;;;;21.08;11.23;;;-1.20;99.90;;;;;;5031474;28;20389;-82
2023/01/18 08:08:26;;;;;;;26.55;11.77;;;-1.20;99.90;;;;;;5029895;28;20351;-82
2023/01/18 08:10:57;;;;;;;17.77;10.43;;;-1.20;99.90;;;;;;5030564;28;20560;-82
2023/01/18 08:13:24;;;;;;;22.65;11.40;;;-1.20;99.90;;;;;;5031735;28;20048;-83
2023/01/18 08:15:49;;;;;;;19.17;11.13;;;-1.20;99.90;;;;;;5030558;28;20043;-82
2023/01/18 08:18:15;;;;;;;18.77;10.50;;;-1.10;99.90;;;;;;5030836;28;20119;-82
2023/01/18 08:20:45;;;;;;;15.30;9.43;;;-1.10;99.90;;;;;;5027651;28;20537;-82
2023/01/18 08:23:11;;;;;;;16.55;10.85;;;-1.10;99.90;;;;;;5026401;28;20127;-82
2023/01/18 08:25:37;;;;;;;17.65;10.57;;;-1.00;99.90;;;;;;5030074;28;20060;-81
2023/01/18 08:28:04;;;;;;;15.32;10.82;;;-1.00;99.90;;;;;;5029853;28;20100;-82
2023/01/18 08:30:33;;;;;;;18.42;9.85;;;-0.90;99.90;;;;;;5045927;28;20056;-82
2023/01/18 08:33:00;;;;;;;19.08;10.85;;;-0.70;99.90;;;;;;5027153;28;20499;-82
2023/01/18 08:35:27;;;;;;;20.05;10.90;;;-0.50;99.90;;;;;;5030374;28;20452;-82
2023/01/18 08:37:53;;;;;;;15.75;10.23;;;-0.30;99.90;;;;;;5045522;28;20388;-83
2023/01/18 08:40:20;;;;;;;16.48;10.48;;;-0.20;99.90;;;;;;5045117;28;20049;-83
2023/01/18 08:42:46;;;;;;;14.70;9.82;;;-0.20;99.90;;;;;;5032754;28;20458;-83
2023/01/18 08:45:13;;;;;;;18.50;9.52;;;-0.10;99.90;;;;;;5032362;28;20057;-83
2023/01/18 08:47:39;;;;;;;16.05;10.43;;;0.10;99.90;;;;;;5031160;28;20037;-83
2023/01/18 08:50:06;;;;;;;15.25;10.27;;;0.20;99.90;;;;;;5029441;28;20099;-83
2023/01/18 08:52:33;;;;;;;17.67;10.10;;;0.30;99.90;;;;;;5059956;28;20043;-83
2023/01/18 08:55:00;;;;;;;17.17;9.82;;;0.40;99.90;;;;;;5047501;28;20468;-83
2023/01/18 08:57:27;;;;;;;16.85;9.77;;;0.50;99.90;;;;;;5045711;28;20041;-84
2023/01/18 08:59:55;;;;;;;16.17;9.32;;;0.60;99.90;;;;;;5030292;28;20079;-83
2023/01/18 09:02:21;;;;;;;14.55;8.82;;;0.70;99.90;;;;;;5044219;28;20114;-84
2023/01/18 09:04:47;;;;;;;15.43;9.25;;;0.70;99.90;;;;;;5030013;28;20045;-84
2023/01/18 09:07:14;;;;;;;15.20;9.52;;;0.80;99.90;;;;;;5029136;28;20044;-84
2023/01/18 09:09:39;;;;;;;15.38;8.43;;;0.90;99.90;;;;;;5027076;28;20033;-84
2023/01/18 09:12:05;;;;;;;12.60;8.63;;;0.90;99.90;;;;;;5027151;28;20056;-83
2023/01/18 09:14:30;;;;;;;14.05;8.43;;;1.00;99.90;;;;;;5044629;28;20115;-84
2023/01/18 09:16:56;;;;;;;16.40;9.30;;;1.00;99.90;;;;;;5028626;28;20077;-83
2023/01/18 09:19:22;;;;;;;12.57;8.00;;;1.10;99.90;;;;;;5023845;28;20116;-83
2023/01/18 09:21:49;;;;;;;14.85;9.30;;;1.10;99.90;;;;;;5025067;28;20040;-83
2023/01/18 09:24:15;;;;;;;15.27;9.25;;;1.10;99.90;;;;;;5024932;28;20037;-82
2023/01/18 09:26:41;;;;;;;13.50;8.93;;;1.20;99.90;;;;;;5026502;28;20422;-82
2023/01/18 09:29:06;;;;;;;14.60;8.27;;;1.20;99.90;;;;;;5027880;28;20520;-82
2023/01/18 09:31:32;;;;;;;16.50;8.57;;;1.30;99.90;;;;;;5044118;28;20045;-81
2023/01/18 09:33:58;;;;;;;16.10;9.07;;;1.40;99.90;;;;;;5028097;28;20044;-82
2023/01/18 09:36:26;;;;;;;18.27;8.73;;;1.40;99.90;;;;;;5027383;28;20063;-82
2023/01/18 09:38:52;;;;;;;13.93;8.70;;;1.50;99.90;;;;;;5028246;28;20441;-81
2023/01/18 09:41:33;;;;;;;15.07;8.27;;;1.60;99.90;;;;;;5040429;28;20072;-82
2023/01/18 09:44:30;;;;;;;13.73;7.93;;;1.60;99.90;;;;;;5039785;28;20447;-82
2023/01/18 09:47:09;;;;;;;15.45;7.55;;;1.70;99.90;;;;;;5019748;28;20049;-82
2023/01/18 09:49:42;;;;;;;16.15;8.95;;;1.80;99.90;;;;;;5020382;28;20056;-82
2023/01/18 09:52:37;;;;;;;14.57;8.30;;;1.90;99.90;;;;;;5023131;28;20045;-82
2023/01/18 09:55:15;;;;;;;;;;;2.00;99.90;;;;;;5056492;28;20044;-82
2023/01/18 09:58:18;;;;;;;13.45;7.88;;;2.00;99.90;;;;;;5020836;28;20749;-82
2023/01/18 10:00:46;;;;;;;13.52;8.00;;;2.10;99.90;;;;;;4987453;28;20512;-82
2023/01/18 10:03:49;;;;;;;13.52;7.47;;;2.20;99.90;;;;;;5021472;28;20041;-82
2023/01/18 10:06:24;;;;;;;12.50;7.68;;;2.30;99.90;;;;;;5039266;28;20443;-82
2023/01/18 10:08:58;;;;;;;12.98;8.27;;;2.30;99.90;;;;;;5021806;28;20097;-82
2023/01/18 10:11:43;;;;;;;14.95;7.93;;;2.40;99.90;;;;;;5071109;28;20087;-81
2023/01/18 10:14:36;;;;;;;13.15;7.38;;;2.50;99.90;;;;;;5056645;28;20033;-81
2023/01/18 10:17:10;;;;;;;12.98;7.88;;;2.50;99.90;;;;;;5019657;28;20044;-82
2023/01/18 10:19:37;;;;;;;11.23;7.00;;;2.60;99.90;;;;;;5022383;28;20052;-81
2023/01/18 10:22:39;;;;;;;13.00;7.88;;;2.70;99.90;;;;;;5041777;28;20037;-81
2023/01/18 10:25:31;;;;;;;12.10;7.82;;;2.70;99.90;;;;;;5057462;28;20040;-81
2023/01/18 10:28:04;;;;;;;12.00;7.03;;;2.80;99.90;;;;;;5025632;28;20041;-82
2023/01/18 10:30:54;;;;;;;11.93;7.25;;;2.90;99.90;;;;;;5038502;28;20116;-81
2023/01/18 10:33:23;;;;;;;12.05;6.93;;;2.90;99.90;;;;;;5016864;28;20124;-82
2023/01/18 10:35:54;;;;;;;11.77;7.47;;;3.10;99.90;;;;;;5021429;28;20028;-81
2023/01/18 10:38:23;;;;;;;10.77;6.28;;;3.10;99.90;;;;;;5023359;28;20107;-82
2023/01/18 10:40:55;;;;;;;11.65;7.30;;;3.20;99.90;;;;;;5024558;28;20697;-82
2023/01/18 10:43:23;;;;;;;11.00;6.43;;;3.20;99.90;;;;;;5037762;28;20072;-82
2023/01/18 10:45:52;;;;;;;10.20;6.05;;;3.30;99.90;;;;;;5053265;28;20459;-82
2023/01/18 10:48:17;;;;;;;16.65;7.68;;;3.40;99.90;;;;;;5036334;28;20072;-82
2023/01/18 10:50:49;;;;;;;11.95;6.70;;;3.50;99.90;;;;;;5022592;28;20513;-81
2023/01/18 10:53:35;;;;;;;13.15;7.10;;;3.50;99.90;;;;;;5018810;28;20049;-81
2023/01/18 10:56:19;;;;;;;13.40;6.78;;;3.60;99.90;;;;;;5022959;28;20029;-82
2023/01/18 10:58:56;;;;;;;12.70;6.70;;;3.60;99.90;;;;;;5068322;28;20076;-81
2023/01/18 11:01:29;;;;;;;11.00;6.75;;;3.70;99.90;;;;;;5038148;28;20045;-81
2023/01/18 11:04:07;;;;;;;12.82;6.68;;;3.70;99.90;;;;;;5038059;28;20067;-81
2023/01/18 11:06:47;;;;;;;9.75;6.10;;;3.80;99.90;;;;;;5020669;28;20107;-81
2023/01/18 11:09:37;;;;;;;12.93;7.07;;;4.00;99.90;;;;;;5051450;28;20079;-81
2023/01/18 11:12:36;;;;;;;10.15;6.07;;;4.10;99.90;;;;;;5019061;28;20121;-81
2023/01/18 11:15:14;;;;;;;10.57;6.70;;;4.30;99.90;;;;;;5044243;28;20051;-81
2023/01/18 11:17:40;;;;;;;12.85;7.35;;;4.40;99.90;;;;;;5021667;28;20049;-80
2023/01/18 11:20:18;;;;;;;12.18;7.32;;;4.40;99.90;;;;;;5038229;28;20099;-80
2023/01/18 11:22:57;;;;;;;11.90;6.90;;;4.40;99.90;;;;;;5026604;28;20036;-81
2023/01/18 11:25:24;;;;;;;10.85;6.43;;;4.40;99.90;;;;;;5022067;28;20041;-81
2023/01/18 11:27:50;;;;;;;11.57;7.15;;;4.40;99.90;;;;;;5075082;28;20075;-80
2023/01/18 11:30:23;;;;;;;13.77;6.65;;;4.40;99.90;;;;;;5043818;28;20485;-80
2023/01/18 11:32:53;;;;;;;11.57;6.43;;;4.20;99.90;;;;;;5028503;28;20491;-81
2023/01/18 11:35:33;;;;;;;13.57;6.00;;;4.00;99.90;;;;;;5059643;28;20036;-80
2023/01/18 11:38:00;;;;;;;12.68;6.78;;;4.10;99.90;;;;;;5044866;28;20126;-81
2023/01/18 11:40:32;;;;;;;12.73;6.72;;;4.40;99.90;;;;;;5030323;28;20090;-81
2023/01/18 11:43:15;;;;;;;12.52;6.43;;;4.60;99.90;;;;;;5028252;28;20389;-81
2023/01/18 11:45:58;;;;;;;10.68;5.85;;;4.80;99.90;;;;;;5032497;28;20048;-81
2023/01/18 11:48:45;;;;;;;12.98;6.20;;;4.90;99.90;;;;;;5028376;28;20049;-81
2023/01/18 11:51:32;;;;;;;8.90;5.30;;;5.00;99.90;;;;;;5024545;28;20081;-81
2023/01/18 11:54:05;;;;;;;9.88;5.43;;;5.10;99.90;;;;;;5023565;28;20040;-81
2023/01/18 11:56:48;;;;;;;10.63;5.80;;;5.10;99.90;;;;;;5025846;28;20346;-81
2023/01/18 11:59:23;;;;;;;9.35;5.57;;;5.10;99.90;;;;;;5042332;28;20126;-81
2023/01/18 12:02:04;;;;;;;12.02;5.70;;;5.00;99.90;;;;;;5056267;28;20045;-81
2023/01/18 12:04:47;;;;;;;9.70;5.90;;;5.00;99.90;;;;;;5043078;28;20041;-81
2023/01/18 12:07:31;;;;;;;11.98;5.78;;;5.00;99.90;;;;;;5044559;28;20052;-81
2023/01/18 12:10:00;;;;;;;12.43;5.50;;;5.00;99.90;;;;;;5041333;28;20059;-81
2023/01/18 12:12:44;;;;;;;9.80;5.63;;;5.00;99.90;;;;;;5056668;28;20134;-81
2023/01/18 12:15:27;;;;;;;9.45;5.22;;;5.00;99.90;;;;;;5026516;28;20044;-82
2023/01/18 12:18:11;;;;;;;11.67;5.27;;;5.00;99.90;;;;;;5054500;28;20123;-81
2023/01/18 12:20:45;;;;;;;9.13;5.20;;;5.10;99.90;;;;;;5042989;28;20128;-82
2023/01/18 12:23:30;;;;;;;;;;;5.10;99.90;;;;;;5061485;28;20834;-82
2023/01/18 12:26:17;;;;;;;13.25;5.72;;;5.00;99.90;;;;;;5079045;28;19929;-82
2023/01/18 12:29:10;;;;;;;10.88;5.45;;;4.70;99.90;;;;;;5064593;28;20527;-82
2023/01/18 12:32:04;;;;;;;10.45;6.03;;;4.60;99.90;;;;;;5029737;28;20040;-82
2023/01/18 12:34:36;;;;;;;11.00;5.05;;;4.60;99.90;;;;;;5037244;28;20041;-82
2023/01/18 12:37:24;;;;;;;11.88;5.72;;;4.80;99.90;;;;;;5036646;28;20041;-81
2023/01/18 12:40:19;;;;;;;10.80;5.53;;;4.80;99.90;;;;;;5084788;28;20049;-82
2023/01/18 12:42:45;;;;;;;;;;;4.90;99.90;;;;;;5031988;28;20048;-82
2023/01/18 12:45:21;;;;;;;9.18;5.53;;;4.90;99.90;;;;;;5036007;28;19920;-82
2023/01/18 12:48:15;;;;;;;10.25;5.50;;;5.00;99.90;;;;;;5082146;28;20052;-82
2023/01/18 12:50:44;;;;;;;11.88;5.65;;;5.00;99.90;;;;;;5046746;28;20064;-82
2023/01/18 12:53:18;;;;;;;11.23;5.43;;;5.00;99.90;;;;;;5046082;28;20076;-82
2023/01/18 12:55:48;;;;;;;9.87;5.70;;;5.00;99.90;;;;;;5028109;28;20208;-82
2023/01/18 12:58:19;;;;;;;11.13;5.55;;;5.00;99.90;;;;;;5026116;28;20033;-81
2023/01/18 13:00:52;;;;;;;9.70;5.30;;;5.00;99.90;;;;;;5079211;28;20036;-82
2023/01/18 13:03:22;;;;;;;11.65;5.43;;;4.90;99.90;;;;;;5029374;28;20033;-82
2023/01/18 13:05:56;;;;;;;9.68;5.53;;;4.80;99.90;;;;;;5062965;28;20037;-82
2023/01/18 13:08:33;;;;;;;9.40;5.18;;;4.70;99.90;;;;;;5046411;28;20072;-82
2023/01/18 13:11:08;;;;;;;11.10;5.63;;;4.60;99.90;;;;;;5028291;28;20451;-82
2023/01/18 13:13:33;;;;;;;;;;;4.60;99.90;;;;;;5029063;28;20141;-82
2023/01/18 13:16:54;;;;;;;7.40;5.13;;;4.50;99.90;;;;;;5029738;28;20378;-82
2023/01/18 13:19:28;;;;;;;9.48;5.10;;;4.50;99.90;;;;;;5014270;28;20094;-82
2023/01/18 13:22:19;;;;;;;10.07;5.00;;;4.50;99.90;;;;;;5042934;28;20436;-82
2023/01/18 13:25:10;;;;;;;10.65;5.65;;;4.50;99.90;;;;;;5060958;28;20040;-82
2023/01/18 13:27:36;;;;;;;10.38;5.40;;;4.50;99.90;;;;;;5029565;28;20080;-82
2023/01/18 13:30:15;;;;;;;12.05;5.78;;;4.50;99.90;;;;;;5028421;28;20039;-82
2023/01/18 13:32:43;;;;;;;9.85;5.05;;;4.50;99.90;;;;;;5045178;28;20047;-82